createdAt,value
2019-02-26T00:00:31.835Z,71.30
2019-02-26T00:03:04.538Z,71.30
2019-02-26T00:05:33.819Z,71.30
2019-02-26T00:08:04.425Z,71.40
2019-02-26T00:10:36.451Z,71.60
2019-02-26T00:13:06.204Z,72.00
2019-02-26T00:15:38.120Z,72.30
2019-02-26T00:18:11.505Z,72.30
2019-02-26T00:20:41.402Z,72.40
2019-02-26T00:23:11.606Z,72.60
2019-02-26T00:25:41.686Z,72.90
2019-02-26T00:28:13.244Z,73.10
2019-02-26T00:30:43.439Z,73.30
2019-02-26T00:33:13.513Z,73.60
2019-02-26T00:35:44.283Z,73.90
2019-02-26T00:38:17.272Z,74.00
2019-02-26T00:40:48.226Z,74.20
2019-02-26T00:43:20.983Z,74.60
2019-02-26T00:45:51.030Z,75.40
2019-02-26T00:48:21.803Z,76.10
2019-02-26T00:50:54.392Z,75.30
2019-02-26T00:53:25.963Z,75.50
2019-02-26T00:58:27.533Z,75.00
2019-02-26T01:00:57.629Z,75.90
2019-02-26T01:03:27.688Z,76.00
2019-02-26T01:05:59.305Z,75.80
2019-02-26T01:08:29.627Z,75.80
2019-02-26T01:11:01.567Z,75.90
2019-02-26T01:13:32.275Z,75.80
2019-02-26T01:16:02.405Z,75.80
2019-02-26T01:18:32.603Z,75.70
2019-02-26T01:21:04.310Z,75.50
2019-02-26T01:23:34.631Z,75.50
2019-02-26T01:26:04.778Z,75.30
2019-02-26T01:28:34.868Z,75.10
2019-02-26T01:31:05.747Z,75.50
2019-02-26T01:33:37.106Z,75.80
2019-02-26T01:36:07.231Z,76.10
2019-02-26T01:38:39.500Z,76.10
2019-02-26T01:41:11.316Z,76.30
2019-02-26T01:43:41.820Z,76.70
2019-02-26T01:46:14.029Z,77.20
2019-02-26T01:48:43.683Z,78.30
2019-02-26T01:51:14.884Z,77.50
2019-02-26T01:53:46.838Z,77.80
2019-02-26T01:56:17.759Z,79.00
2019-02-26T01:58:56.301Z,78.30
2019-02-26T02:01:21.987Z,78.00
2019-02-26T02:03:53.892Z,77.90
2019-02-26T02:06:23.966Z,78.00
2019-02-26T02:08:55.742Z,77.90
2019-02-26T02:11:28.442Z,78.90
2019-02-26T02:14:01.820Z,78.20
2019-02-26T02:16:31.816Z,78.60
2019-02-26T02:19:04.243Z,78.90
2019-02-26T02:21:35.646Z,78.80
2019-02-26T02:24:10.757Z,78.60
2019-02-26T02:26:37.923Z,78.60
2019-02-26T02:29:08.055Z,78.80
2019-02-26T02:31:40.156Z,79.20
2019-02-26T02:34:10.010Z,79.40
2019-02-26T02:36:40.147Z,79.90
2019-02-26T02:39:13.223Z,79.40
2019-02-26T02:41:44.630Z,79.50
2019-02-26T02:44:15.423Z,79.40
2019-02-26T02:46:46.686Z,79.30
2019-02-26T02:49:17.937Z,79.30
2019-02-26T02:51:48.151Z,79.20
2019-02-26T02:54:21.047Z,79.30
2019-02-26T02:56:51.253Z,79.50
2019-02-26T02:59:21.357Z,79.70
2019-02-26T03:01:54.293Z,79.80
2019-02-26T03:04:27.857Z,80.80
2019-02-26T03:06:55.569Z,80.20
2019-02-26T03:09:26.725Z,80.50
2019-02-26T03:11:56.869Z,80.70
2019-02-26T03:14:26.976Z,81.00
2019-02-26T03:16:57.137Z,81.40
2019-02-26T03:19:29.492Z,81.70
2019-02-26T03:21:58.984Z,81.90
2019-02-26T03:24:31.432Z,81.90
2019-02-26T03:27:00.738Z,82.00
2019-02-26T03:29:30.787Z,82.10
2019-02-26T03:32:00.903Z,82.20
2019-02-26T03:34:30.942Z,83.10
2019-02-26T03:37:03.844Z,81.80
2019-02-26T03:39:32.835Z,82.60
2019-02-26T03:42:02.896Z,82.50
2019-02-26T03:44:33.005Z,82.70
2019-02-26T03:47:03.120Z,82.70
2019-02-26T03:49:33.188Z,82.70
2019-02-26T03:52:03.207Z,82.60
2019-02-26T03:54:33.245Z,82.70
2019-02-26T03:57:03.403Z,82.70
2019-02-26T03:59:33.615Z,83.40
2019-02-26T04:02:03.622Z,82.30
2019-02-26T04:04:33.796Z,82.20
2019-02-26T04:07:08.097Z,82.20
2019-02-26T04:09:39.100Z,82.30
2019-02-26T04:12:11.222Z,82.40
2019-02-26T04:14:40.498Z,82.90
2019-02-26T04:17:10.607Z,82.90
2019-02-26T04:19:43.771Z,83.00
2019-02-26T04:22:29.436Z,83.10
2019-02-26T04:25:27.014Z,83.30
2019-02-26T04:28:11.244Z,83.40
2019-02-26T04:31:20.435Z,83.40
2019-02-26T04:34:23.324Z,83.40
2019-02-26T04:37:48.126Z,83.40
2019-02-26T04:40:35.746Z,83.40
2019-02-26T04:43:41.896Z,83.60
2019-02-26T04:46:40.700Z,83.80
2019-02-26T04:49:10.718Z,83.80
2019-02-26T04:51:44.496Z,83.80
2019-02-26T04:54:17.501Z,84.00
2019-02-26T04:56:45.115Z,84.00
2019-02-26T04:59:16.939Z,84.20
2019-02-26T05:01:51.799Z,84.70
2019-02-26T05:04:19.422Z,84.80
2019-02-26T05:06:49.571Z,85.00
2019-02-26T05:09:19.618Z,85.10
2019-02-26T05:11:49.663Z,85.00
2019-02-26T05:14:22.903Z,85.40
2019-02-26T05:16:51.486Z,84.80
2019-02-26T05:19:22.353Z,84.50
2019-02-26T05:21:54.003Z,84.50
2019-02-26T05:24:26.350Z,84.60
2019-02-26T05:26:56.661Z,84.90
2019-02-26T05:29:26.814Z,84.90
2019-02-26T05:31:58.818Z,85.10
2019-02-26T05:34:29.586Z,85.30
2019-02-26T05:37:01.898Z,85.00
2019-02-26T05:39:31.451Z,84.90
2019-02-26T05:42:03.959Z,85.10
2019-02-26T05:44:33.322Z,85.00
2019-02-26T05:47:03.351Z,85.10
2019-02-26T05:49:35.359Z,85.20
2019-02-26T05:52:07.160Z,85.30
2019-02-26T05:54:37.065Z,85.70
2019-02-26T05:57:10.795Z,85.70
2019-02-26T05:59:41.897Z,85.50
2019-02-26T06:02:14.052Z,85.40
2019-02-26T06:04:46.569Z,85.50
2019-02-26T06:07:19.174Z,85.60
2019-02-26T06:09:50.932Z,85.60
2019-02-26T06:12:20.315Z,85.90
2019-02-26T06:14:51.488Z,86.10
2019-02-26T06:17:22.178Z,86.30
2019-02-26T06:19:52.680Z,86.00
2019-02-26T06:22:26.039Z,85.80
2019-02-26T06:24:59.498Z,85.50
2019-02-26T06:27:29.346Z,86.30
2019-02-26T06:30:03.236Z,85.40
2019-02-26T06:32:34.291Z,85.30
2019-02-26T06:35:06.190Z,85.10
2019-02-26T06:37:37.878Z,85.30
2019-02-26T06:40:09.619Z,85.50
2019-02-26T06:42:40.343Z,85.60
2019-02-26T06:45:16.477Z,85.70
2019-02-26T06:47:48.600Z,85.50
2019-02-26T06:50:18.889Z,85.40
2019-02-26T06:52:50.764Z,85.20
2019-02-26T06:55:21.207Z,85.00
2019-02-26T06:57:52.862Z,84.90
2019-02-26T07:00:25.288Z,85.10
2019-02-26T07:02:54.986Z,85.20
2019-02-26T07:05:25.010Z,85.30
2019-02-26T07:07:57.065Z,85.30
2019-02-26T07:10:30.780Z,85.20
2019-02-26T07:12:59.719Z,84.90
2019-02-26T07:15:29.849Z,84.90
2019-02-26T07:18:04.457Z,84.70
2019-02-26T07:20:34.302Z,84.70
2019-02-26T07:23:05.790Z,84.50
2019-02-26T07:25:39.038Z,84.30
2019-02-26T07:28:08.250Z,84.30
2019-02-26T07:30:39.907Z,84.10
2019-02-26T07:33:12.141Z,83.90
2019-02-26T07:35:41.756Z,83.60
2019-02-26T07:38:11.791Z,83.40
2019-02-26T07:40:41.823Z,83.10
2019-02-26T07:43:14.734Z,82.90
2019-02-26T07:45:43.604Z,82.40
2019-02-26T07:48:16.442Z,82.10
2019-02-26T07:50:47.755Z,81.50
2019-02-26T07:53:19.641Z,80.80
2019-02-26T07:55:48.864Z,80.30
2019-02-26T07:58:18.898Z,80.00
2019-02-26T08:00:49.736Z,79.70
2019-02-26T08:03:23.777Z,79.40
2019-02-26T08:05:52.478Z,78.80
2019-02-26T08:08:22.615Z,78.20
2019-02-26T08:10:53.073Z,77.80
2019-02-26T08:13:24.389Z,77.40
2019-02-26T08:15:57.664Z,77.80
2019-02-26T08:18:26.979Z,76.10
2019-02-26T08:20:57.938Z,75.70
2019-02-26T08:23:28.764Z,75.20
2019-02-26T08:26:00.445Z,74.60
2019-02-26T08:28:30.563Z,74.00
2019-02-26T08:31:00.769Z,73.30
2019-02-26T08:33:30.889Z,72.70
2019-02-26T08:36:01.119Z,72.40
2019-02-26T08:38:31.173Z,71.60
2019-02-26T08:41:01.290Z,71.30
2019-02-26T08:43:31.370Z,71.20
2019-02-26T08:46:01.523Z,71.10
2019-02-26T08:48:31.739Z,70.90
2019-02-26T08:51:05.343Z,70.50
2019-02-26T08:53:34.766Z,68.00
2019-02-26T08:56:04.892Z,61.80
2019-02-26T08:58:34.998Z,55.70
2019-02-26T09:01:05.493Z,50.40
2019-02-26T09:03:40.785Z,46.60
2019-02-26T09:06:12.728Z,43.50
2019-02-26T09:08:40.661Z,41.00
2019-02-26T09:11:13.387Z,39.70
2019-02-26T09:13:43.828Z,38.50
2019-02-26T09:16:14.159Z,37.80
2019-02-26T09:18:44.296Z,37.50
2019-02-26T09:21:15.267Z,37.70
2019-02-26T09:23:47.395Z,36.20
2019-02-26T09:26:17.229Z,36.10
2019-02-26T09:28:48.223Z,36.00
2019-02-26T09:31:19.158Z,35.70
2019-02-26T09:33:49.264Z,34.80
2019-02-26T09:36:23.156Z,34.00
2019-02-26T09:38:51.443Z,34.10
2019-02-26T09:41:21.766Z,33.60
2019-02-26T09:43:51.841Z,34.20
2019-02-26T09:46:21.871Z,34.50
2019-02-26T09:48:52.287Z,32.40
2019-02-26T09:51:22.419Z,32.50
2019-02-26T09:53:54.322Z,33.20
2019-02-26T09:56:24.263Z,33.50
2019-02-26T09:58:54.256Z,33.90
2019-02-26T10:01:24.298Z,34.10
2019-02-26T10:03:55.975Z,34.10
2019-02-26T10:06:26.144Z,34.40
2019-02-26T10:08:56.213Z,32.90
2019-02-26T10:11:27.940Z,32.40
2019-02-26T10:13:58.182Z,31.20
2019-02-26T10:16:30.522Z,31.00
2019-02-26T10:19:01.355Z,31.50
2019-02-26T10:21:33.130Z,30.20
2019-02-26T10:24:04.597Z,30.00
2019-02-26T10:26:36.586Z,29.90
2019-02-26T10:29:07.995Z,30.50
2019-02-26T10:31:41.087Z,31.20
2019-02-26T10:34:12.599Z,31.60
2019-02-26T10:36:44.136Z,31.10
2019-02-26T10:39:15.671Z,30.90
2019-02-26T10:41:46.707Z,31.10
2019-02-26T10:44:16.935Z,31.00
2019-02-26T10:46:47.047Z,30.00
2019-02-26T10:49:17.173Z,31.00
2019-02-26T10:51:47.315Z,30.90
2019-02-26T10:54:18.108Z,30.90
2019-02-26T10:56:57.194Z,31.10
2019-02-26T10:59:26.831Z,33.40
2019-02-26T11:01:58.582Z,36.30
2019-02-26T11:04:34.805Z,39.40
2019-02-26T11:07:02.380Z,41.10
2019-02-26T11:09:32.484Z,42.30
2019-02-26T11:12:05.207Z,42.80
2019-02-26T11:14:36.223Z,43.40
2019-02-26T11:17:06.180Z,43.40
2019-02-26T11:19:38.824Z,43.60
2019-02-26T11:22:08.047Z,43.60
2019-02-26T11:24:38.086Z,43.70
2019-02-26T11:27:08.144Z,43.50
2019-02-26T11:29:38.826Z,43.10
2019-02-26T11:32:12.407Z,43.00
2019-02-26T11:34:41.799Z,43.30
2019-02-26T11:37:11.843Z,42.60
2019-02-26T11:39:42.004Z,42.10
2019-02-26T11:42:21.106Z,41.40
2019-02-26T11:44:51.704Z,41.30
2019-02-26T11:47:21.858Z,41.20
2019-02-26T11:49:51.948Z,41.10
2019-02-26T11:52:22.007Z,40.80
2019-02-26T11:54:52.171Z,41.70
2019-02-26T11:57:22.268Z,41.20
2019-02-26T11:59:52.472Z,41.30
2019-02-26T12:02:26.137Z,40.70
2019-02-26T12:04:54.885Z,40.50
2019-02-26T12:07:27.282Z,40.10
2019-02-26T12:09:57.960Z,40.00
2019-02-26T12:12:30.944Z,39.70
2019-02-26T12:15:02.081Z,39.50
2019-02-26T12:17:34.177Z,39.00
2019-02-26T12:20:04.394Z,38.90
2019-02-26T12:22:34.497Z,38.80
2019-02-26T12:25:08.270Z,38.70
2019-02-26T12:27:38.365Z,38.50
2019-02-26T12:30:13.323Z,38.50
2019-02-26T12:32:47.234Z,38.70
2019-02-26T12:35:17.797Z,38.60
2019-02-26T12:37:50.112Z,38.40
2019-02-26T12:40:22.190Z,38.70
2019-02-26T12:42:51.538Z,38.60
2019-02-26T12:45:21.817Z,38.40
2019-02-26T12:47:54.967Z,38.50
2019-02-26T12:50:28.988Z,38.10
2019-02-26T12:52:57.023Z,38.40
2019-02-26T12:55:31.651Z,38.20
2019-02-26T12:57:59.631Z,37.70
2019-02-26T13:00:29.884Z,37.90
2019-02-26T13:02:59.950Z,38.00
2019-02-26T13:05:30.128Z,38.20
2019-02-26T13:08:00.213Z,38.50
2019-02-26T13:10:30.449Z,38.50
2019-02-26T13:13:03.920Z,38.50
2019-02-26T13:15:32.427Z,38.70
2019-02-26T13:18:02.490Z,38.50
2019-02-26T13:20:32.687Z,38.60
2019-02-26T13:23:16.330Z,38.50
2019-02-26T13:25:34.820Z,38.60
2019-02-26T13:28:04.905Z,38.50
2019-02-26T13:30:35.054Z,38.50
2019-02-26T13:33:11.286Z,38.20
2019-02-26T13:35:38.088Z,38.00
2019-02-26T13:38:08.322Z,37.90
2019-02-26T13:40:40.176Z,37.60
2019-02-26T13:43:11.405Z,37.40
2019-02-26T13:45:41.682Z,37.20
2019-02-26T13:48:13.029Z,37.10
2019-02-26T13:50:43.622Z,37.20
2019-02-26T13:53:14.098Z,37.10
2019-02-26T13:55:45.120Z,37.80
2019-02-26T13:58:17.651Z,37.50
2019-02-26T14:00:48.105Z,37.50
2019-02-26T14:03:18.630Z,37.80
2019-02-26T14:05:50.605Z,37.50
2019-02-26T14:08:25.546Z,37.00
2019-02-26T14:10:56.043Z,37.00
2019-02-26T14:13:26.517Z,37.10
2019-02-26T14:15:56.803Z,37.30
2019-02-26T14:18:27.092Z,37.40
2019-02-26T14:20:57.475Z,37.10
2019-02-26T14:23:27.793Z,37.00
2019-02-26T14:25:57.920Z,36.90
2019-02-26T14:28:28.256Z,36.30
2019-02-26T14:30:58.342Z,36.70
2019-02-26T14:33:28.453Z,36.40
2019-02-26T14:35:58.630Z,36.70
2019-02-26T14:38:28.714Z,36.60
2019-02-26T14:41:00.131Z,36.80
2019-02-26T14:43:30.479Z,36.90
2019-02-26T14:46:00.735Z,37.20
2019-02-26T14:48:30.859Z,37.70
2019-02-26T14:51:01.043Z,37.80
2019-02-26T14:53:31.167Z,38.10
2019-02-26T14:56:01.273Z,38.20
2019-02-26T14:58:31.481Z,37.90
2019-02-26T15:01:01.635Z,38.10
2019-02-26T15:05:25.333Z,38.40
2019-02-26T15:07:55.503Z,39.00
2019-02-26T15:10:25.608Z,39.10
2019-02-26T15:12:56.086Z,39.30
2019-02-26T15:15:26.172Z,39.10
2019-02-26T15:17:56.251Z,39.00
2019-02-26T15:20:26.544Z,39.30
2019-02-26T15:22:56.731Z,39.50
2019-02-26T15:25:26.782Z,39.90
2019-02-26T15:28:04.498Z,40.30
2019-02-26T15:30:34.488Z,40.60
2019-02-26T15:33:10.968Z,40.60
2019-02-26T15:35:37.698Z,40.90
2019-02-26T15:38:07.862Z,40.70
2019-02-26T15:40:37.966Z,40.70
2019-02-26T15:43:08.117Z,40.90
2019-02-26T15:45:38.414Z,41.40
2019-02-26T15:48:09.642Z,42.00
2019-02-26T15:50:40.376Z,42.50
2019-02-26T15:53:10.690Z,42.30
2019-02-26T15:55:42.174Z,42.00
2019-02-26T15:58:12.355Z,42.10
2019-02-26T16:00:42.523Z,42.30
2019-02-26T16:03:13.366Z,42.50
2019-02-26T16:05:43.499Z,42.90
2019-02-26T16:08:13.586Z,43.50
2019-02-26T16:10:43.785Z,44.70
2019-02-26T16:13:13.914Z,44.70
2019-02-26T16:15:44.070Z,44.80
2019-02-26T16:18:14.560Z,45.00
2019-02-26T16:20:44.658Z,45.30
2019-02-26T16:23:14.695Z,45.40
2019-02-26T16:25:44.788Z,45.90
2019-02-26T16:28:14.895Z,46.50
2019-02-26T16:30:45.334Z,46.90
2019-02-26T16:33:15.480Z,47.40
2019-02-26T16:35:45.652Z,48.00
2019-02-26T16:38:15.820Z,48.00
2019-02-26T16:40:46.099Z,48.60
2019-02-26T16:43:17.061Z,48.90
2019-02-26T16:45:47.976Z,49.00
2019-02-26T16:48:21.367Z,49.60
2019-02-26T16:50:49.833Z,50.50
2019-02-26T16:53:19.994Z,51.00
2019-02-26T16:55:50.058Z,51.20
2019-02-26T16:58:20.403Z,51.40
2019-02-26T17:00:50.567Z,51.80
2019-02-26T17:03:20.632Z,52.00
2019-02-26T17:05:50.784Z,52.70
2019-02-26T17:08:20.942Z,52.00
2019-02-26T17:10:51.103Z,52.10
2019-02-26T17:13:21.251Z,52.30
2019-02-26T17:15:51.707Z,52.60
2019-02-26T17:18:21.864Z,52.90
2019-02-26T17:20:52.007Z,53.20
2019-02-26T17:23:22.210Z,53.50
2019-02-26T17:25:52.412Z,53.80
2019-02-26T17:28:22.679Z,54.40
2019-02-26T17:30:52.790Z,54.90
2019-02-26T17:33:22.835Z,55.10
2019-02-26T17:35:53.038Z,55.20
2019-02-26T17:38:23.332Z,55.20
2019-02-26T17:40:53.441Z,55.20
2019-02-26T17:43:25.191Z,55.10
2019-02-26T17:45:55.404Z,55.60
2019-02-26T17:48:25.637Z,55.50
2019-02-26T17:50:57.872Z,56.10
2019-02-26T17:53:35.052Z,56.30
2019-02-26T17:56:09.747Z,56.90
2019-02-26T17:58:41.718Z,57.10
2019-02-26T18:01:11.799Z,56.90
2019-02-26T18:03:45.363Z,56.60
2019-02-26T18:06:15.539Z,56.70
2019-02-26T18:08:46.111Z,56.90
2019-02-26T18:11:16.290Z,56.90
2019-02-26T18:13:46.411Z,57.30
2019-02-26T18:16:17.558Z,57.40
2019-02-26T18:18:48.802Z,58.30
2019-02-26T18:21:18.873Z,58.50
2019-02-26T18:23:50.099Z,57.90
2019-02-26T18:26:21.830Z,58.30
2019-02-26T18:28:53.183Z,58.50
2019-02-26T18:31:26.454Z,58.80
2019-02-26T18:33:55.328Z,59.20
2019-02-26T18:36:25.496Z,59.40
2019-02-26T18:38:55.711Z,59.60
2019-02-26T18:41:26.118Z,59.80
2019-02-26T18:44:04.038Z,60.00
2019-02-26T18:46:34.283Z,60.10
2019-02-26T18:49:05.207Z,60.40
2019-02-26T18:51:37.100Z,60.80
2019-02-26T18:54:07.336Z,60.80
2019-02-26T18:56:39.413Z,60.70
2019-02-26T18:59:09.172Z,61.00
2019-02-26T19:01:39.353Z,61.40
2019-02-26T19:04:09.493Z,61.80
2019-02-26T19:06:39.702Z,62.10
2019-02-26T19:09:11.709Z,62.60
2019-02-26T19:11:42.053Z,62.70
2019-02-26T19:14:12.211Z,62.90
2019-02-26T19:16:42.230Z,62.70
2019-02-26T19:19:12.358Z,63.80
2019-02-26T19:21:42.533Z,64.30
2019-02-26T19:24:12.764Z,64.80
2019-02-26T19:26:44.457Z,64.90
2019-02-26T19:29:14.787Z,64.50
2019-02-26T19:31:44.829Z,64.50
2019-02-26T19:34:14.973Z,64.60
2019-02-26T19:36:45.821Z,64.70
2019-02-26T19:39:16.437Z,64.70
2019-02-26T19:41:46.703Z,64.90
2019-02-26T19:44:17.876Z,65.20
2019-02-26T19:46:49.666Z,65.40
2019-02-26T19:49:19.864Z,65.80
2019-02-26T19:51:51.088Z,66.20
2019-02-26T19:54:21.262Z,66.20
2019-02-26T19:56:51.547Z,66.30
2019-02-26T19:59:21.687Z,66.50
2019-02-26T20:01:51.800Z,66.50
2019-02-26T20:04:21.879Z,66.80
2019-02-26T20:06:52.011Z,67.00
2019-02-26T20:09:22.250Z,67.20
2019-02-26T20:11:53.584Z,67.60
2019-02-26T20:14:24.246Z,67.90
2019-02-26T20:16:54.303Z,68.10
2019-02-26T20:19:24.365Z,68.50
2019-02-26T20:21:54.475Z,68.90
2019-02-26T20:24:24.617Z,68.90
2019-02-26T20:26:54.755Z,69.20
2019-02-26T20:29:24.814Z,69.20
2019-02-26T20:31:55.845Z,69.40
2019-02-26T20:34:32.261Z,69.80
2019-02-26T20:37:02.397Z,70.10
2019-02-26T20:39:33.600Z,70.50
2019-02-26T20:42:04.866Z,70.80
2019-02-26T20:44:35.112Z,71.00
2019-02-26T20:47:05.212Z,71.30
2019-02-26T20:49:35.387Z,72.40
2019-02-26T20:52:05.987Z,71.70
2019-02-26T20:54:36.155Z,72.00
2019-02-26T20:57:06.222Z,72.10
2019-02-26T20:59:36.312Z,72.30
2019-02-26T21:02:06.596Z,72.30
2019-02-26T21:04:36.646Z,72.40
2019-02-26T21:07:07.035Z,72.40
2019-02-26T21:09:40.148Z,72.50
2019-02-26T21:12:08.854Z,72.50
2019-02-26T21:14:41.376Z,72.70
2019-02-26T21:17:10.751Z,72.90
2019-02-26T21:19:40.913Z,73.40
2019-02-26T21:22:11.279Z,73.60
2019-02-26T21:24:41.319Z,73.70
2019-02-26T21:27:11.507Z,73.70
2019-02-26T21:29:41.609Z,73.70
2019-02-26T21:32:11.874Z,73.70
2019-02-26T21:34:42.953Z,73.90
2019-02-26T21:37:13.203Z,74.00
2019-02-26T21:39:43.747Z,74.10
2019-02-26T21:42:14.501Z,74.20
2019-02-26T21:44:44.559Z,74.10
2019-02-26T21:47:14.711Z,74.10
2019-02-26T21:49:46.524Z,74.10
2019-02-26T21:52:16.623Z,74.20
2019-02-26T21:54:46.710Z,74.20
2019-02-26T21:57:16.809Z,74.10
2019-02-26T21:59:49.939Z,73.90
2019-02-26T22:02:19.373Z,73.80
2019-02-26T22:04:49.619Z,74.10
2019-02-26T22:07:19.858Z,74.40
2019-02-26T22:09:50.052Z,74.60
2019-02-26T22:12:23.777Z,74.60
2019-02-26T22:15:11.583Z,74.50
2019-02-26T22:17:41.618Z,74.70
2019-02-26T22:20:21.989Z,74.80
2019-02-26T22:22:44.532Z,74.80
2019-02-26T22:25:16.992Z,75.00
2019-02-26T22:27:46.631Z,75.20
2019-02-26T22:30:21.545Z,75.40
2019-02-26T22:32:49.012Z,75.80
2019-02-26T22:35:19.243Z,75.90
2019-02-26T22:37:49.278Z,76.00
2019-02-26T22:40:19.310Z,76.10
2019-02-26T22:42:49.526Z,76.60
2019-02-26T22:45:19.532Z,75.00
2019-02-26T22:47:49.653Z,74.50
2019-02-26T22:50:21.143Z,74.20
2019-02-26T22:52:51.173Z,74.30
2019-02-26T22:55:21.223Z,74.30
2019-02-26T22:57:51.260Z,74.40
2019-02-26T23:00:50.623Z,74.50
2019-02-26T23:03:22.271Z,74.80
2019-02-26T23:05:52.370Z,75.10
2019-02-26T23:08:22.426Z,75.40
2019-02-26T23:10:56.865Z,75.80
2019-02-26T23:13:24.910Z,75.90
2019-02-26T23:15:55.020Z,76.10
2019-02-26T23:18:25.205Z,76.20
2019-02-26T23:20:55.382Z,76.40
2019-02-26T23:23:25.591Z,76.70
2019-02-26T23:25:55.638Z,76.80
2019-02-26T23:28:25.764Z,77.00
2019-02-26T23:30:59.626Z,77.00
2019-02-26T23:33:27.797Z,77.20
2019-02-26T23:35:57.790Z,77.50
2019-02-26T23:38:28.870Z,77.30
2019-02-26T23:41:00.341Z,77.50
2019-02-26T23:43:32.144Z,77.80
2019-02-26T23:46:02.235Z,77.80
2019-02-26T23:48:32.276Z,77.90
2019-02-26T23:51:02.397Z,78.20
2019-02-26T23:53:34.160Z,78.00
2019-02-26T23:56:05.359Z,78.40
2019-02-26T23:58:35.399Z,78.60
